createdAt,value
2022-11-28T00:22:32.470Z,87
2022-11-28T00:51:41.456Z,88
2022-11-28T01:20:44.027Z,88
2022-11-28T01:49:44.603Z,86
2022-11-28T02:18:51.310Z,85
2022-11-28T02:47:33.827Z,86
2022-11-28T03:16:36.142Z,87
2022-11-28T03:45:38.039Z,87
2022-11-28T04:14:32.020Z,87
2022-11-28T04:43:30.502Z,91
2022-11-28T05:12:32.486Z,89
2022-11-28T05:41:35.838Z,91
2022-11-28T06:10:33.280Z,92
2022-11-28T06:39:42.135Z,90
2022-11-28T07:08:24.545Z,88
2022-11-28T07:37:20.560Z,89
2022-11-28T08:06:23.831Z,90
2022-11-28T08:35:44.201Z,90
2022-11-28T09:05:06.730Z,90
2022-11-28T09:34:30.443Z,90
2022-11-28T10:03:48.586Z,90
2022-11-28T10:33:01.329Z,91
2022-11-28T11:02:07.135Z,92
2022-11-28T11:31:24.934Z,90
2022-11-28T12:00:40.163Z,90
2022-11-28T12:29:54.432Z,91
2022-11-28T12:59:13.731Z,93
2022-11-28T13:28:26.846Z,94
2022-11-28T13:57:49.782Z,93
2022-11-28T14:27:08.941Z,94
2022-11-28T14:56:19.900Z,96
2022-11-28T15:25:41.934Z,97
2022-11-28T15:55:03.072Z,99
2022-11-28T16:24:22.749Z,100
2022-11-28T16:53:38.634Z,100
2022-11-28T17:22:49.352Z,100
2022-11-28T17:51:59.979Z,100
2022-11-28T18:21:09.740Z,100
2022-11-28T18:50:29.656Z,99
2022-11-28T19:19:40.430Z,100
2022-11-28T19:48:59.287Z,100
2022-11-28T20:18:14.856Z,100
2022-11-28T20:47:27.492Z,100
2022-11-28T21:16:51.959Z,98
2022-11-28T21:46:07.774Z,97
2022-11-28T22:15:23.296Z,96
2022-11-28T22:44:47.523Z,96
2022-11-28T23:14:11.239Z,95
2022-11-28T23:43:35.036Z,95
